Flugplatz Blomberg-Borkhausen

Für EDVF sind keine METAR/TAF Berichte vorhanden.
Es werden die Flugwettermeldungen vom Flugplatz Buckeburg Airport in 40 km Entfernung angezeigt.

Bericht für ETHB

vom 28.02. um 02:20 UTC

Wind 7 kt aus 280°

Sichtweite 10 km oder mehr

gering bewölkt in 3000 ft

aufgebrochene Bewölkung in 4900 ft

Temperatur 2.0°C

Taupunkt 0.0°C

Luftfeuchtigkeit 87%

Luftdruck 1009 hPa

ETHB 280220Z 28007KT 9999 FEW030 BKN049 02/00 Q1009 BLU
Keine Prognose (TAF) verfügbar.
Impressum